createdAt,value
2023-01-26T00:01:33.463Z,0.01
2023-01-26T00:04:05.043Z,0.08
2023-01-26T00:06:36.895Z,0.01
2023-01-26T00:09:08.363Z,-0.21
2023-01-26T00:11:40.401Z,-0.10
2023-01-26T00:14:11.893Z,-0.06
2023-01-26T00:16:43.737Z,-0.07
2023-01-26T00:19:15.227Z,-0.16
2023-01-26T00:21:47.080Z,-0.11
2023-01-26T00:24:18.664Z,-0.12
2023-01-26T00:26:50.503Z,-0.19
2023-01-26T00:29:21.988Z,-0.04
2023-01-26T00:31:53.815Z,0.07
2023-01-26T00:34:25.347Z,0.09
2023-01-26T00:36:57.130Z,0.20
2023-01-26T00:39:28.617Z,0.17
2023-01-26T00:42:14.177Z,0.16
2023-01-26T00:44:45.738Z,0.25
2023-01-26T00:47:17.683Z,0.07
2023-01-26T00:49:49.208Z,0.08
2023-01-26T00:52:21.045Z,0.08
2023-01-26T00:54:52.576Z,0.17
2023-01-26T00:57:24.190Z,0.21
2023-01-26T00:59:55.693Z,0.16
2023-01-26T01:02:27.713Z,0.15
2023-01-26T01:04:59.327Z,0.12
2023-01-26T01:07:31.385Z,0.05
2023-01-26T01:10:02.870Z,0.11
2023-01-26T01:12:34.798Z,0.22
2023-01-26T01:15:06.295Z,0.23
2023-01-26T01:17:38.176Z,0.07
2023-01-26T01:20:10.142Z,0.16
2023-01-26T01:22:42.291Z,0.21
2023-01-26T01:25:13.818Z,0.15
2023-01-26T01:27:45.661Z,0.06
2023-01-26T01:30:17.264Z,0.15
2023-01-26T01:32:51.783Z,0.18
2023-01-26T01:35:23.301Z,0.08
2023-01-26T01:37:55.127Z,0.02
2023-01-26T01:40:26.648Z,0.01
2023-01-26T01:42:58.819Z,0.13
2023-01-26T01:45:30.307Z,0.22
2023-01-26T01:48:02.616Z,0.13
2023-01-26T01:50:34.121Z,0.08
2023-01-26T01:53:05.907Z,0.04
2023-01-26T01:55:37.413Z,0.09
2023-01-26T01:58:09.370Z,0.08
2023-01-26T02:00:40.944Z,0.14
2023-01-26T02:03:15.226Z,0.09
2023-01-26T02:05:46.721Z,0.06
2023-01-26T02:08:18.660Z,-0.03
2023-01-26T02:10:50.367Z,0.07
2023-01-26T02:13:22.096Z,0.07
2023-01-26T02:15:53.687Z,0.14
2023-01-26T02:18:25.622Z,0.11
2023-01-26T02:20:57.189Z,-0.04
2023-01-26T02:23:29.575Z,-0.05
2023-01-26T02:26:01.369Z,0.07
2023-01-26T02:28:33.573Z,0.09
2023-01-26T02:31:05.162Z,0.13
2023-01-26T02:33:37.298Z,0.16
2023-01-26T02:36:08.823Z,0.08
2023-01-26T02:38:40.625Z,0.16
2023-01-26T02:41:12.113Z,0.19
2023-01-26T02:43:43.870Z,0.12
2023-01-26T02:46:15.422Z,0.15
2023-01-26T02:49:13.398Z,0.13
2023-01-26T02:51:44.914Z,0.17
2023-01-26T02:54:35.555Z,0.14
2023-01-26T02:57:07.077Z,0.13
2023-01-26T02:59:38.921Z,0.28
2023-01-26T03:02:10.464Z,0.18
2023-01-26T03:04:42.354Z,0.20
2023-01-26T03:07:14.163Z,0.20
2023-01-26T03:09:45.959Z,0.24
2023-01-26T03:12:17.450Z,0.24
2023-01-26T03:15:09.229Z,0.27
2023-01-26T03:17:41.040Z,0.34
2023-01-26T03:20:31.445Z,0.21
2023-01-26T03:23:21.750Z,0.25
2023-01-26T03:26:11.875Z,0.29
2023-01-26T03:28:43.713Z,0.18
2023-01-26T03:31:15.218Z,0.11
2023-01-26T03:33:46.984Z,0.06
2023-01-26T03:36:18.490Z,0.14
2023-01-26T03:38:50.346Z,0.14
2023-01-26T03:41:40.485Z,0.18
2023-01-26T03:44:30.948Z,0.22
2023-01-26T03:47:21.138Z,0.27
2023-01-26T03:50:11.758Z,0.17
2023-01-26T03:53:02.367Z,0.22
2023-01-26T03:55:52.428Z,0.19
2023-01-26T03:58:24.231Z,0.25
2023-01-26T04:00:55.748Z,0.25
2023-01-26T04:03:46.236Z,0.22
2023-01-26T04:06:36.321Z,0.23
2023-01-26T04:09:07.841Z,0.24
2023-01-26T04:11:39.539Z,0.15
2023-01-26T04:14:29.957Z,0.08
2023-01-26T04:17:22.416Z,0.09
2023-01-26T04:20:13.057Z,0.03
2023-01-26T04:22:45.364Z,0.08
2023-01-26T04:25:17.205Z,0.09
2023-01-26T04:27:48.754Z,0.03
2023-01-26T04:30:20.664Z,0.15
2023-01-26T04:32:53.333Z,0.20
2023-01-26T04:35:24.821Z,0.16
2023-01-26T04:37:56.642Z,0.09
2023-01-26T04:40:28.165Z,0.14
2023-01-26T04:42:59.942Z,0.18
2023-01-26T04:45:31.473Z,0.10
2023-01-26T04:48:03.232Z,0.14
2023-01-26T04:50:34.713Z,0.12
2023-01-26T04:53:06.760Z,0.14
2023-01-26T04:55:38.246Z,0.04
2023-01-26T04:58:09.762Z,0.08
2023-01-26T05:00:41.242Z,0.08
2023-01-26T05:03:12.993Z,0.05
2023-01-26T05:05:44.457Z,-0.02
2023-01-26T05:08:16.222Z,-0.11
2023-01-26T05:10:47.723Z,0.02
2023-01-26T05:13:19.605Z,-0.07
2023-01-26T05:15:51.104Z,-0.03
2023-01-26T05:18:22.647Z,-0.01
2023-01-26T05:20:54.131Z,-0.04
2023-01-26T05:23:25.937Z,-0.02
2023-01-26T05:25:57.440Z,-0.11
2023-01-26T05:28:28.950Z,-0.10
2023-01-26T05:31:00.517Z,-0.03
2023-01-26T05:33:32.539Z,0.03
2023-01-26T05:36:04.022Z,-0.06
2023-01-26T05:38:35.867Z,0.08
2023-01-26T05:41:07.808Z,0.01
2023-01-26T05:43:39.866Z,-0.05
2023-01-26T05:46:11.484Z,0.01
2023-01-26T05:48:43.444Z,0.05
2023-01-26T05:51:14.931Z,0.05
2023-01-26T05:53:46.807Z,-0.09
2023-01-26T05:56:18.324Z,-0.12
2023-01-26T05:58:50.154Z,-0.02
2023-01-26T06:01:21.817Z,0.01
2023-01-26T06:03:53.811Z,0.08
2023-01-26T06:06:25.365Z,0.10
2023-01-26T06:08:57.233Z,0.09
2023-01-26T06:11:28.773Z,0.04
2023-01-26T06:14:00.630Z,0.06
2023-01-26T06:16:32.189Z,0.11
2023-01-26T06:19:04.110Z,0.03
2023-01-26T06:21:35.612Z,0.04
2023-01-26T06:24:07.455Z,0.01
2023-01-26T06:26:39.280Z,-0.07
2023-01-26T06:29:10.881Z,-0.16
2023-01-26T06:31:42.510Z,-0.23
2023-01-26T06:34:14.509Z,-0.16
2023-01-26T06:36:46.035Z,-0.06
2023-01-26T06:39:17.907Z,-0.03
2023-01-26T06:41:49.367Z,0.03
2023-01-26T06:44:21.435Z,0.07
2023-01-26T06:46:52.923Z,0.01
2023-01-26T06:49:24.837Z,0.06
2023-01-26T06:51:56.352Z,0.07
2023-01-26T06:54:28.314Z,0.06
2023-01-26T06:57:00.036Z,0.10
2023-01-26T06:59:31.804Z,0.09
2023-01-26T07:02:03.312Z,-0.08
2023-01-26T07:04:35.063Z,-0.16
2023-01-26T07:07:06.568Z,-0.18
2023-01-26T07:09:38.475Z,-0.27
2023-01-26T07:12:09.998Z,-0.19
2023-01-26T07:14:41.975Z,-0.17
2023-01-26T07:17:13.461Z,-0.10
2023-01-26T07:19:45.625Z,-0.23
2023-01-26T07:22:17.138Z,-0.21
2023-01-26T07:24:48.962Z,-0.23
2023-01-26T07:27:20.456Z,-0.20
2023-01-26T07:29:51.971Z,-0.28
2023-01-26T07:32:23.447Z,-0.26
2023-01-26T07:34:55.455Z,-0.32
2023-01-26T07:37:26.941Z,-0.31
2023-01-26T07:39:58.720Z,-0.27
2023-01-26T07:42:31.107Z,-0.32
2023-01-26T07:45:02.980Z,-0.33
2023-01-26T07:47:35.878Z,-0.29
2023-01-26T07:50:07.841Z,-0.26
2023-01-26T07:52:39.394Z,-0.16
2023-01-26T07:55:11.719Z,-0.23
2023-01-26T07:57:43.523Z,-0.28
2023-01-26T08:00:15.335Z,-0.26
2023-01-26T08:02:46.861Z,-0.24
2023-01-26T08:05:18.756Z,-0.21
2023-01-26T08:07:50.275Z,-0.13
2023-01-26T08:10:21.830Z,-0.07
2023-01-26T08:12:53.315Z,-0.17
2023-01-26T08:15:25.152Z,-0.15
2023-01-26T08:17:56.709Z,-0.22
2023-01-26T08:20:28.586Z,-0.32
2023-01-26T08:23:00.583Z,-0.44
2023-01-26T08:25:33.847Z,-0.37
2023-01-26T08:28:05.332Z,-0.45
2023-01-26T08:30:37.426Z,-0.39
2023-01-26T08:33:08.977Z,-0.39
2023-01-26T08:35:40.808Z,-0.41
2023-01-26T08:38:12.292Z,-0.45
2023-01-26T08:40:44.104Z,-0.39
2023-01-26T08:43:15.588Z,-0.34
2023-01-26T08:45:47.612Z,-0.39
2023-01-26T08:48:19.120Z,-0.35
2023-01-26T08:50:50.815Z,-0.36
2023-01-26T08:53:22.288Z,-0.30
2023-01-26T08:55:53.866Z,-0.28
2023-01-26T08:58:25.340Z,-0.29
2023-01-26T09:00:57.164Z,-0.23
2023-01-26T09:03:28.749Z,-0.30
2023-01-26T09:06:01.053Z,-0.29
2023-01-26T09:08:32.545Z,-0.29
2023-01-26T09:11:04.557Z,-0.18
2023-01-26T09:13:37.223Z,-0.20
2023-01-26T09:16:09.287Z,-0.31
2023-01-26T09:18:40.791Z,-0.28
2023-01-26T09:21:12.999Z,-0.29
2023-01-26T09:23:44.479Z,-0.21
2023-01-26T09:26:16.341Z,-0.25
2023-01-26T09:28:47.855Z,-0.39
2023-01-26T09:31:19.929Z,-0.35
2023-01-26T09:33:51.473Z,-0.22
2023-01-26T09:36:23.529Z,-0.24
2023-01-26T09:38:55.035Z,-0.35
2023-01-26T09:41:26.901Z,-0.16
2023-01-26T09:43:58.421Z,-0.10
2023-01-26T09:46:30.333Z,-0.05
2023-01-26T09:49:01.870Z,-0.20
2023-01-26T09:51:33.749Z,-0.17
2023-01-26T09:54:05.238Z,-0.16
2023-01-26T09:56:37.260Z,-0.24
2023-01-26T09:59:08.749Z,-0.27
2023-01-26T10:01:40.519Z,-0.13
2023-01-26T10:04:12.079Z,-0.08
2023-01-26T10:06:43.888Z,-0.03
2023-01-26T10:09:15.369Z,0.03
2023-01-26T10:11:47.239Z,0.07
2023-01-26T10:14:18.729Z,-0.08
2023-01-26T10:16:50.656Z,-0.16
2023-01-26T10:19:22.251Z,0.03
2023-01-26T10:21:54.137Z,-0.10
2023-01-26T10:24:25.636Z,0.02
2023-01-26T10:26:58.189Z,0.05
2023-01-26T10:29:29.700Z,0.06
2023-01-26T10:32:01.587Z,-0.04
2023-01-26T10:34:33.159Z,-0.05
2023-01-26T10:37:05.043Z,-0.04
2023-01-26T10:39:37.802Z,-0.03
2023-01-26T10:42:09.286Z,-0.17
2023-01-26T10:44:41.146Z,-0.13
2023-01-26T10:47:12.619Z,-0.13
2023-01-26T10:49:44.413Z,-0.03
2023-01-26T10:52:17.376Z,0.01
2023-01-26T10:54:49.241Z,0.09
2023-01-26T10:57:21.855Z,0.11
2023-01-26T10:59:53.392Z,0.03
2023-01-26T11:02:24.978Z,-0.11
2023-01-26T11:04:56.669Z,-0.08
2023-01-26T11:07:28.388Z,0.04
2023-01-26T11:09:59.894Z,-0.03
2023-01-26T11:12:31.657Z,-0.03
2023-01-26T11:15:04.295Z,-0.03
2023-01-26T11:17:35.795Z,-0.16
2023-01-26T11:20:08.043Z,-0.04
2023-01-26T11:22:39.519Z,-0.05
2023-01-26T11:25:11.552Z,0.12
2023-01-26T11:27:43.244Z,0.13
2023-01-26T11:30:15.124Z,0.21
2023-01-26T11:32:46.960Z,0.15
2023-01-26T11:35:18.869Z,-0.01
2023-01-26T11:37:53.026Z,-0.21
2023-01-26T11:40:25.667Z,-0.24
2023-01-26T11:42:57.233Z,-0.14
2023-01-26T11:45:29.489Z,-0.04
2023-01-26T11:48:01.027Z,0.04
2023-01-26T11:50:32.939Z,-0.20
2023-01-26T11:53:04.468Z,-0.13
2023-01-26T11:55:36.249Z,-0.07
2023-01-26T11:58:08.099Z,0.05
2023-01-26T12:00:40.452Z,0.07
2023-01-26T12:03:12.052Z,0.12
2023-01-26T12:05:43.933Z,0.04
2023-01-26T12:08:15.444Z,-0.02
2023-01-26T12:10:47.271Z,-0.16
2023-01-26T12:13:20.274Z,-0.22
2023-01-26T12:15:52.249Z,-0.13
2023-01-26T12:18:26.295Z,-0.26
2023-01-26T12:21:01.810Z,-0.24
2023-01-26T12:23:33.743Z,-0.15
2023-01-26T12:26:05.375Z,-0.05
2023-01-26T12:28:36.889Z,-0.01
2023-01-26T12:31:10.544Z,-0.04
2023-01-26T12:33:42.192Z,0.01
2023-01-26T12:36:13.996Z,-0.04
2023-01-26T12:38:45.491Z,-0.01
2023-01-26T12:41:17.395Z,0.08
2023-01-26T12:43:49.022Z,0.06
2023-01-26T12:46:20.788Z,0.31
2023-01-26T12:48:52.312Z,0.30
2023-01-26T12:51:24.193Z,0.26
2023-01-26T12:53:55.810Z,0.38
2023-01-26T12:56:27.677Z,0.47
2023-01-26T12:58:59.398Z,0.55
2023-01-26T13:01:31.607Z,0.36
2023-01-26T13:04:03.115Z,0.42
2023-01-26T13:09:23.616Z,0.45
2023-01-26T13:11:55.514Z,0.59
2023-01-26T13:14:27.080Z,0.55
2023-01-26T13:16:59.300Z,0.66
2023-01-26T13:19:30.835Z,0.50
2023-01-26T13:22:02.666Z,0.44
2023-01-26T13:24:34.144Z,0.45
2023-01-26T13:27:05.904Z,0.33
2023-01-26T13:29:37.452Z,0.30
2023-01-26T13:32:09.334Z,0.22
2023-01-26T13:34:40.844Z,0.30
2023-01-26T13:37:12.683Z,0.42
2023-01-26T13:39:44.197Z,0.45
2023-01-26T13:42:15.736Z,0.35
2023-01-26T13:44:47.323Z,0.27
2023-01-26T13:47:20.986Z,0.25
2023-01-26T13:49:52.664Z,0.24
2023-01-26T13:52:24.511Z,0.22
2023-01-26T13:54:57.713Z,0.33
2023-01-26T13:57:29.584Z,0.24
2023-01-26T14:00:01.176Z,0.07
2023-01-26T14:02:33.272Z,0.07
2023-01-26T14:05:04.779Z,0.05
2023-01-26T14:07:36.390Z,-0.02
2023-01-26T14:10:10.937Z,0.13
2023-01-26T14:12:42.965Z,0.08
2023-01-26T14:15:14.469Z,0.04
2023-01-26T14:17:46.284Z,0.02
2023-01-26T14:20:17.801Z,0.17
2023-01-26T14:22:49.850Z,0.09
2023-01-26T14:25:21.384Z,0.04
2023-01-26T14:27:53.299Z,0.02
2023-01-26T14:30:24.867Z,0.03
2023-01-26T14:32:56.758Z,0.03
2023-01-26T14:35:28.633Z,-0.05
2023-01-26T14:38:00.644Z,-0.02
2023-01-26T14:40:32.172Z,-0.21
2023-01-26T14:43:04.170Z,-0.14
2023-01-26T14:45:35.789Z,-0.19
2023-01-26T14:48:07.295Z,-0.15
2023-01-26T14:50:38.792Z,-0.06
2023-01-26T14:53:10.599Z,-0.11
2023-01-26T14:55:42.103Z,-0.21
2023-01-26T14:58:13.939Z,-0.12
2023-01-26T15:00:45.955Z,-0.19
2023-01-26T15:03:17.511Z,-0.27
2023-01-26T15:05:49.327Z,-0.27
2023-01-26T15:08:20.844Z,-0.27
2023-01-26T15:10:52.369Z,-0.34
2023-01-26T15:13:23.887Z,-0.38
2023-01-26T15:15:55.730Z,-0.31
2023-01-26T15:18:29.756Z,-0.25
2023-01-26T15:21:01.647Z,-0.34
2023-01-26T15:23:33.220Z,-0.20
2023-01-26T15:26:05.113Z,-0.18
2023-01-26T15:28:36.672Z,-0.28
2023-01-26T15:31:08.686Z,-0.30
2023-01-26T15:33:40.254Z,-0.44
2023-01-26T15:36:12.079Z,-0.42
2023-01-26T15:38:43.575Z,-0.39
2023-01-26T15:41:15.602Z,-0.37
2023-01-26T15:43:47.071Z,-0.38
2023-01-26T15:46:18.902Z,-0.38
2023-01-26T15:48:50.488Z,-0.38
2023-01-26T15:51:22.360Z,-0.35
2023-01-26T15:53:53.906Z,-0.48
2023-01-26T15:56:25.940Z,-0.47
2023-01-26T15:58:57.438Z,-0.50
2023-01-26T16:01:29.299Z,-0.45
2023-01-26T16:04:00.843Z,-0.42
2023-01-26T16:06:33.911Z,-0.50
2023-01-26T16:09:05.471Z,-0.50
2023-01-26T16:11:37.345Z,-0.47
2023-01-26T16:14:08.820Z,-0.43
2023-01-26T16:16:40.639Z,-0.36
2023-01-26T16:19:20.558Z,-0.35
2023-01-26T16:21:58.411Z,-0.30
2023-01-26T16:24:29.990Z,-0.33
2023-01-26T16:27:01.955Z,-0.33
2023-01-26T16:29:33.482Z,-0.32
2023-01-26T16:32:05.352Z,-0.39
2023-01-26T16:34:36.875Z,-0.36
2023-01-26T16:37:08.688Z,-0.42
2023-01-26T16:39:40.384Z,-0.39
2023-01-26T16:42:11.884Z,-0.44
2023-01-26T16:44:43.366Z,-0.44
2023-01-26T16:47:15.361Z,-0.76
2023-01-26T16:49:47.457Z,-0.66
2023-01-26T16:52:19.378Z,-0.63
2023-01-26T16:54:50.943Z,-0.57
2023-01-26T16:57:22.743Z,-0.53
2023-01-26T16:59:54.597Z,-0.61
2023-01-26T17:02:26.552Z,-0.65
2023-01-26T17:04:58.061Z,-0.59
2023-01-26T17:07:29.883Z,-0.65
2023-01-26T17:10:01.379Z,-0.59
2023-01-26T17:12:33.088Z,-0.57
2023-01-26T17:15:05.202Z,-0.61
2023-01-26T17:17:37.578Z,-0.63
2023-01-26T17:20:18.525Z,-0.68
2023-01-26T17:22:51.329Z,-0.62
2023-01-26T17:25:22.843Z,-0.67
2023-01-26T17:27:54.648Z,-0.73
2023-01-26T17:30:26.186Z,-0.72
2023-01-26T17:32:57.980Z,-0.69
2023-01-26T17:35:29.488Z,-0.66
2023-01-26T17:38:01.212Z,-0.58
2023-01-26T17:40:32.723Z,-0.61
2023-01-26T17:43:04.644Z,-0.49
2023-01-26T17:45:36.202Z,-0.48
2023-01-26T17:48:08.064Z,-0.50
2023-01-26T17:50:39.596Z,-0.51
2023-01-26T17:53:11.098Z,-0.50
2023-01-26T17:55:42.603Z,-0.56
2023-01-26T17:58:14.099Z,-0.56
2023-01-26T18:00:45.627Z,-0.63
2023-01-26T18:03:17.159Z,-0.59
2023-01-26T18:05:48.640Z,-0.65
2023-01-26T18:08:20.500Z,-0.61
2023-01-26T18:10:51.995Z,-0.57
2023-01-26T18:13:23.963Z,-0.45
2023-01-26T18:15:55.576Z,-1.60
2023-01-26T18:18:27.377Z,-0.46
2023-01-26T18:20:58.897Z,-0.46
2023-01-26T18:23:30.710Z,-0.43
2023-01-26T18:26:03.641Z,-0.46
2023-01-26T18:28:35.165Z,-0.45
2023-01-26T18:31:06.785Z,-0.42
2023-01-26T18:33:38.293Z,-0.43
2023-01-26T18:36:11.696Z,-0.45
2023-01-26T18:38:43.565Z,-0.40
2023-01-26T18:41:15.129Z,-0.37
2023-01-26T18:43:49.023Z,-0.40
2023-01-26T18:46:20.638Z,-0.39
2023-01-26T18:48:52.462Z,-0.33
2023-01-26T18:51:24.055Z,-0.31
2023-01-26T18:53:55.980Z,-0.33
2023-01-26T18:56:27.544Z,-0.36
2023-01-26T18:58:59.530Z,-0.33
2023-01-26T19:01:31.084Z,-0.38
2023-01-26T19:04:04.344Z,-0.40
2023-01-26T19:06:36.311Z,-0.35
2023-01-26T19:09:08.159Z,-0.38
2023-01-26T19:11:39.736Z,-0.41
2023-01-26T19:14:11.585Z,-0.39
2023-01-26T19:16:43.887Z,-0.33
2023-01-26T19:19:15.440Z,-0.39
2023-01-26T19:21:46.926Z,-0.50
2023-01-26T19:24:18.856Z,-0.50
2023-01-26T19:26:50.427Z,-0.42
2023-01-26T19:29:22.438Z,-0.45
2023-01-26T19:31:54.032Z,-0.39
2023-01-26T19:34:31.010Z,-0.39
2023-01-26T19:37:02.984Z,-0.32
2023-01-26T19:39:36.333Z,-0.47
2023-01-26T19:42:09.026Z,-0.37
2023-01-26T19:44:40.523Z,-0.35
2023-01-26T19:47:12.045Z,-0.33
2023-01-26T19:49:43.526Z,-0.31
2023-01-26T19:52:15.088Z,-0.34
2023-01-26T19:54:46.593Z,-0.47
2023-01-26T19:57:18.445Z,-0.40
2023-01-26T19:59:54.353Z,-0.41
2023-01-26T20:02:26.190Z,-0.47
2023-01-26T20:04:57.745Z,-0.45
2023-01-26T20:07:29.314Z,-0.48
2023-01-26T20:10:00.849Z,-0.46
2023-01-26T20:12:33.472Z,-0.44
2023-01-26T20:15:05.091Z,-0.40
2023-01-26T20:17:36.608Z,-0.42
2023-01-26T20:20:08.163Z,-0.44
2023-01-26T20:22:40.011Z,-0.33
2023-01-26T20:25:12.066Z,-0.29
2023-01-26T20:27:44.298Z,-0.24
2023-01-26T20:30:16.672Z,-0.25
2023-01-26T20:32:48.478Z,-0.28
2023-01-26T20:35:19.977Z,-0.23
2023-01-26T20:37:51.798Z,-0.21
2023-01-26T20:40:23.434Z,-0.22
2023-01-26T20:42:54.985Z,-0.22
2023-01-26T20:45:26.472Z,-0.20
2023-01-26T20:47:58.528Z,-0.19
2023-01-26T20:50:35.909Z,-0.24
2023-01-26T20:53:07.861Z,-0.23
2023-01-26T20:55:39.359Z,-0.15
2023-01-26T20:58:11.258Z,-0.16
2023-01-26T21:00:42.802Z,-0.16
2023-01-26T21:03:14.586Z,-0.12
2023-01-26T21:05:46.079Z,-0.15
2023-01-26T21:08:17.895Z,-0.15
2023-01-26T21:10:49.409Z,-0.15
2023-01-26T21:13:21.008Z,-0.22
2023-01-26T21:15:52.694Z,-0.13
2023-01-26T21:18:24.518Z,-0.07
2023-01-26T21:20:57.221Z,-0.05
2023-01-26T21:23:28.878Z,0.02
2023-01-26T21:26:00.409Z,0.06
2023-01-26T21:28:32.340Z,-0.02
2023-01-26T21:31:03.932Z,-0.02
2023-01-26T21:33:35.784Z,-0.08
2023-01-26T21:36:07.314Z,-0.03
2023-01-26T21:38:39.180Z,-0.12
2023-01-26T21:41:29.296Z,-0.05
2023-01-26T21:44:01.178Z,-0.03
2023-01-26T21:46:32.679Z,-0.01
2023-01-26T21:49:04.501Z,-0.10
2023-01-26T21:51:54.712Z,-0.05
2023-01-26T21:54:26.668Z,0.00
2023-01-26T21:56:58.255Z,-0.05
2023-01-26T21:59:30.089Z,-0.01
2023-01-26T22:02:02.822Z,0.06
2023-01-26T22:04:34.699Z,0.07
2023-01-26T22:07:06.199Z,0.10
2023-01-26T22:09:39.209Z,0.07
2023-01-26T22:12:10.733Z,0.10
2023-01-26T22:14:42.635Z,0.10
2023-01-26T22:17:14.133Z,0.07
2023-01-26T22:19:45.694Z,0.09
2023-01-26T22:22:17.209Z,0.05
2023-01-26T22:24:49.114Z,-0.01
2023-01-26T22:27:20.629Z,0.03
2023-01-26T22:29:52.184Z,0.02
2023-01-26T22:32:23.870Z,-0.09
2023-01-26T22:34:55.805Z,-0.05
2023-01-26T22:37:27.375Z,-0.01
2023-01-26T22:39:59.486Z,-0.01
2023-01-26T22:42:31.253Z,-0.06
2023-01-26T22:45:03.124Z,-0.08
2023-01-26T22:47:35.812Z,0.04
2023-01-26T22:50:07.672Z,0.07
2023-01-26T22:52:39.189Z,0.08
2023-01-26T22:55:11.199Z,-0.02
2023-01-26T22:57:42.699Z,-0.05
2023-01-26T23:00:14.726Z,-0.05
2023-01-26T23:02:46.440Z,-0.01
2023-01-26T23:05:18.265Z,0.01
2023-01-26T23:07:49.798Z,-0.01
2023-01-26T23:10:21.625Z,-0.01
2023-01-26T23:12:53.143Z,0.03
2023-01-26T23:15:25.038Z,0.00
2023-01-26T23:17:56.586Z,0.07
2023-01-26T23:20:28.379Z,0.11
2023-01-26T23:22:59.879Z,0.08
2023-01-26T23:25:50.281Z,0.10
2023-01-26T23:28:22.403Z,0.15
2023-01-26T23:30:53.933Z,0.18
2023-01-26T23:33:25.960Z,0.16
2023-01-26T23:35:57.496Z,0.15
2023-01-26T23:38:29.056Z,0.20
2023-01-26T23:41:00.645Z,0.19
2023-01-26T23:43:32.506Z,0.26
2023-01-26T23:46:04.892Z,0.34
2023-01-26T23:48:36.727Z,0.37
2023-01-26T23:51:08.564Z,0.32
2023-01-26T23:53:40.406Z,0.31
2023-01-26T23:56:11.929Z,0.31
2023-01-26T23:58:43.521Z,0.30
